sensor_id;sensor_type;location;lat;lon;timestamp;P1;durP1;ratioP1;P2;durP2;ratioP2
12802;SDS011;6465;42.700;23.278;2023-12-20T00:01:18;104.77;;;68.67;;
12802;SDS011;6465;42.700;23.278;2023-12-20T00:03:45;98.47;;;67.67;;
12802;SDS011;6465;42.700;23.278;2023-12-20T00:06:12;107.03;;;72.07;;
12802;SDS011;6465;42.700;23.278;2023-12-20T00:08:39;117.90;;;75.53;;
12802;SDS011;6465;42.700;23.278;2023-12-20T00:11:06;114.57;;;74.50;;
12802;SDS011;6465;42.700;23.278;2023-12-20T00:13:33;118.57;;;78.30;;
12802;SDS011;6465;42.700;23.278;2023-12-20T00:16:02;161.97;;;100.37;;
12802;SDS011;6465;42.700;23.278;2023-12-20T00:18:29;153.30;;;92.07;;
12802;SDS011;6465;42.700;23.278;2023-12-20T00:20:56;125.10;;;80.43;;
12802;SDS011;6465;42.700;23.278;2023-12-20T00:23:23;122.00;;;78.47;;
12802;SDS011;6465;42.700;23.278;2023-12-20T00:25:50;108.90;;;69.50;;
12802;SDS011;6465;42.700;23.278;2023-12-20T00:28:17;108.40;;;69.43;;
12802;SDS011;6465;42.700;23.278;2023-12-20T00:30:44;106.50;;;69.97;;
12802;SDS011;6465;42.700;23.278;2023-12-20T00:33:13;125.77;;;77.63;;
12802;SDS011;6465;42.700;23.278;2023-12-20T00:35:40;104.90;;;66.77;;
12802;SDS011;6465;42.700;23.278;2023-12-20T00:38:07;95.50;;;60.93;;
12802;SDS011;6465;42.700;23.278;2023-12-20T00:40:34;93.27;;;61.77;;
12802;SDS011;6465;42.700;23.278;2023-12-20T00:43:01;106.27;;;67.33;;
12802;SDS011;6465;42.700;23.278;2023-12-20T00:45:28;87.40;;;58.70;;
12802;SDS011;6465;42.700;23.278;2023-12-20T00:47:55;93.63;;;59.93;;
12802;SDS011;6465;42.700;23.278;2023-12-20T00:50:23;82.43;;;53.67;;
12802;SDS011;6465;42.700;23.278;2023-12-20T00:52:50;77.93;;;52.13;;
12802;SDS011;6465;42.700;23.278;2023-12-20T00:55:17;87.73;;;58.20;;
12802;SDS011;6465;42.700;23.278;2023-12-20T00:57:44;85.93;;;55.23;;
12802;SDS011;6465;42.700;23.278;2023-12-20T01:00:12;79.43;;;52.90;;
12802;SDS011;6465;42.700;23.278;2023-12-20T01:02:40;75.63;;;53.27;;
12802;SDS011;6465;42.700;23.278;2023-12-20T01:05:06;90.23;;;54.47;;
12802;SDS011;6465;42.700;23.278;2023-12-20T01:07:35;103.47;;;59.40;;
12802;SDS011;6465;42.700;23.278;2023-12-20T01:10:03;86.97;;;53.07;;
12802;SDS011;6465;42.700;23.278;2023-12-20T01:12:30;89.50;;;51.77;;
12802;SDS011;6465;42.700;23.278;2023-12-20T01:14:57;77.80;;;48.23;;
12802;SDS011;6465;42.700;23.278;2023-12-20T01:17:24;65.60;;;42.67;;
12802;SDS011;6465;42.700;23.278;2023-12-20T01:19:51;67.93;;;46.60;;
12802;SDS011;6465;42.700;23.278;2023-12-20T01:22:18;69.00;;;44.70;;
12802;SDS011;6465;42.700;23.278;2023-12-20T01:24:46;79.77;;;46.90;;
12802;SDS011;6465;42.700;23.278;2023-12-20T01:27:13;100.53;;;59.00;;
12802;SDS011;6465;42.700;23.278;2023-12-20T01:29:40;86.70;;;49.50;;
12802;SDS011;6465;42.700;23.278;2023-12-20T01:32:07;65.23;;;43.73;;
12802;SDS011;6465;42.700;23.278;2023-12-20T01:34:34;70.03;;;46.77;;
12802;SDS011;6465;42.700;23.278;2023-12-20T01:37:01;77.37;;;49.90;;
12802;SDS011;6465;42.700;23.278;2023-12-20T01:39:29;77.83;;;51.80;;
12802;SDS011;6465;42.700;23.278;2023-12-20T01:41:57;74.23;;;44.93;;
12802;SDS011;6465;42.700;23.278;2023-12-20T01:44:24;75.97;;;47.87;;
12802;SDS011;6465;42.700;23.278;2023-12-20T01:46:52;81.77;;;50.10;;
12802;SDS011;6465;42.700;23.278;2023-12-20T01:49:19;65.23;;;45.00;;
12802;SDS011;6465;42.700;23.278;2023-12-20T01:51:47;75.60;;;50.77;;
12802;SDS011;6465;42.700;23.278;2023-12-20T01:54:14;85.17;;;53.23;;
12802;SDS011;6465;42.700;23.278;2023-12-20T01:56:42;94.57;;;60.97;;
12802;SDS011;6465;42.700;23.278;2023-12-20T01:59:10;84.97;;;55.40;;
12802;SDS011;6465;42.700;23.278;2023-12-20T02:01:38;83.57;;;53.27;;
12802;SDS011;6465;42.700;23.278;2023-12-20T02:04:06;80.63;;;52.43;;
12802;SDS011;6465;42.700;23.278;2023-12-20T02:06:33;80.83;;;53.33;;
12802;SDS011;6465;42.700;23.278;2023-12-20T02:09:00;91.57;;;49.67;;
12802;SDS011;6465;42.700;23.278;2023-12-20T02:11:27;75.30;;;46.37;;
12802;SDS011;6465;42.700;23.278;2023-12-20T02:13:55;78.93;;;48.07;;
12802;SDS011;6465;42.700;23.278;2023-12-20T02:16:23;73.70;;;47.63;;
12802;SDS011;6465;42.700;23.278;2023-12-20T02:18:50;74.73;;;46.23;;
12802;SDS011;6465;42.700;23.278;2023-12-20T02:21:17;73.17;;;46.37;;
12802;SDS011;6465;42.700;23.278;2023-12-20T02:23:46;72.27;;;47.03;;
12802;SDS011;6465;42.700;23.278;2023-12-20T02:26:13;75.10;;;48.87;;
12802;SDS011;6465;42.700;23.278;2023-12-20T02:28:39;75.50;;;48.60;;
12802;SDS011;6465;42.700;23.278;2023-12-20T02:31:06;68.87;;;47.20;;
12802;SDS011;6465;42.700;23.278;2023-12-20T02:33:33;74.47;;;49.10;;
12802;SDS011;6465;42.700;23.278;2023-12-20T02:36:00;78.17;;;49.80;;
12802;SDS011;6465;42.700;23.278;2023-12-20T02:38:27;81.23;;;50.27;;
12802;SDS011;6465;42.700;23.278;2023-12-20T02:40:55;80.53;;;51.97;;
12802;SDS011;6465;42.700;23.278;2023-12-20T02:43:22;83.27;;;52.63;;
12802;SDS011;6465;42.700;23.278;2023-12-20T02:45:49;77.37;;;46.53;;
12802;SDS011;6465;42.700;23.278;2023-12-20T02:48:17;74.83;;;43.40;;
12802;SDS011;6465;42.700;23.278;2023-12-20T02:50:44;79.23;;;44.27;;
12802;SDS011;6465;42.700;23.278;2023-12-20T02:53:13;55.80;;;36.27;;
12802;SDS011;6465;42.700;23.278;2023-12-20T02:55:40;54.77;;;35.40;;
12802;SDS011;6465;42.700;23.278;2023-12-20T02:58:08;75.90;;;48.33;;
12802;SDS011;6465;42.700;23.278;2023-12-20T03:00:35;77.67;;;47.03;;
12802;SDS011;6465;42.700;23.278;2023-12-20T03:03:02;70.20;;;50.60;;
12802;SDS011;6465;42.700;23.278;2023-12-20T03:05:29;74.30;;;49.17;;
12802;SDS011;6465;42.700;23.278;2023-12-20T03:07:56;56.10;;;35.47;;
12802;SDS011;6465;42.700;23.278;2023-12-20T03:10:23;49.67;;;31.67;;
12802;SDS011;6465;42.700;23.278;2023-12-20T03:12:50;64.50;;;42.93;;
12802;SDS011;6465;42.700;23.278;2023-12-20T03:15:19;72.17;;;49.90;;
12802;SDS011;6465;42.700;23.278;2023-12-20T03:17:45;78.93;;;45.77;;
12802;SDS011;6465;42.700;23.278;2023-12-20T03:20:12;68.13;;;44.10;;
12802;SDS011;6465;42.700;23.278;2023-12-20T03:22:40;74.87;;;44.73;;
12802;SDS011;6465;42.700;23.278;2023-12-20T03:25:07;77.03;;;45.60;;
12802;SDS011;6465;42.700;23.278;2023-12-20T03:27:36;78.53;;;42.87;;
12802;SDS011;6465;42.700;23.278;2023-12-20T03:30:04;70.33;;;39.90;;
12802;SDS011;6465;42.700;23.278;2023-12-20T03:32:33;81.93;;;45.60;;
12802;SDS011;6465;42.700;23.278;2023-12-20T03:35:00;84.70;;;41.03;;
12802;SDS011;6465;42.700;23.278;2023-12-20T03:37:27;75.37;;;40.93;;
12802;SDS011;6465;42.700;23.278;2023-12-20T03:39:54;74.57;;;40.63;;
12802;SDS011;6465;42.700;23.278;2023-12-20T03:42:21;71.90;;;40.50;;
12802;SDS011;6465;42.700;23.278;2023-12-20T03:44:48;59.07;;;37.03;;
12802;SDS011;6465;42.700;23.278;2023-12-20T03:47:15;75.57;;;38.07;;
12802;SDS011;6465;42.700;23.278;2023-12-20T03:49:44;70.03;;;36.57;;
12802;SDS011;6465;42.700;23.278;2023-12-20T03:52:11;65.03;;;35.03;;
12802;SDS011;6465;42.700;23.278;2023-12-20T03:54:38;69.77;;;41.00;;
12802;SDS011;6465;42.700;23.278;2023-12-20T03:57:05;72.30;;;41.17;;
12802;SDS011;6465;42.700;23.278;2023-12-20T03:59:34;83.93;;;43.93;;
12802;SDS011;6465;42.700;23.278;2023-12-20T04:02:01;75.80;;;41.70;;
12802;SDS011;6465;42.700;23.278;2023-12-20T04:04:28;74.30;;;40.20;;
12802;SDS011;6465;42.700;23.278;2023-12-20T04:06:56;75.73;;;40.53;;
12802;SDS011;6465;42.700;23.278;2023-12-20T04:09:23;76.53;;;40.97;;
12802;SDS011;6465;42.700;23.278;2023-12-20T04:11:50;67.03;;;37.97;;
12802;SDS011;6465;42.700;23.278;2023-12-20T04:14:17;68.10;;;33.43;;
12802;SDS011;6465;42.700;23.278;2023-12-20T04:16:44;86.93;;;42.77;;
12802;SDS011;6465;42.700;23.278;2023-12-20T04:19:11;79.43;;;37.87;;
12802;SDS011;6465;42.700;23.278;2023-12-20T04:21:38;70.97;;;35.90;;
12802;SDS011;6465;42.700;23.278;2023-12-20T04:24:07;57.67;;;31.63;;
12802;SDS011;6465;42.700;23.278;2023-12-20T04:26:34;73.13;;;34.37;;
12802;SDS011;6465;42.700;23.278;2023-12-20T04:29:01;84.60;;;38.03;;
12802;SDS011;6465;42.700;23.278;2023-12-20T04:31:28;73.07;;;38.47;;
12802;SDS011;6465;42.700;23.278;2023-12-20T04:33:55;75.27;;;36.90;;
12802;SDS011;6465;42.700;23.278;2023-12-20T04:36:22;79.33;;;38.40;;
12802;SDS011;6465;42.700;23.278;2023-12-20T04:38:50;79.90;;;39.77;;
12802;SDS011;6465;42.700;23.278;2023-12-20T04:41:18;83.47;;;39.07;;
12802;SDS011;6465;42.700;23.278;2023-12-20T04:43:46;67.97;;;35.23;;
12802;SDS011;6465;42.700;23.278;2023-12-20T04:46:13;72.07;;;37.90;;
12802;SDS011;6465;42.700;23.278;2023-12-20T04:48:40;84.03;;;38.43;;
12802;SDS011;6465;42.700;23.278;2023-12-20T04:51:06;82.23;;;37.20;;
12802;SDS011;6465;42.700;23.278;2023-12-20T04:53:33;82.63;;;35.60;;
12802;SDS011;6465;42.700;23.278;2023-12-20T04:56:00;89.60;;;34.07;;
12802;SDS011;6465;42.700;23.278;2023-12-20T04:58:29;59.97;;;30.27;;
12802;SDS011;6465;42.700;23.278;2023-12-20T05:00:56;54.20;;;32.03;;
12802;SDS011;6465;42.700;23.278;2023-12-20T05:03:23;59.07;;;33.40;;
12802;SDS011;6465;42.700;23.278;2023-12-20T05:05:50;64.87;;;33.90;;
12802;SDS011;6465;42.700;23.278;2023-12-20T05:08:17;80.30;;;41.57;;
12802;SDS011;6465;42.700;23.278;2023-12-20T05:10:44;76.47;;;37.83;;
12802;SDS011;6465;42.700;23.278;2023-12-20T05:13:11;71.40;;;38.17;;
12802;SDS011;6465;42.700;23.278;2023-12-20T05:15:39;64.03;;;36.07;;
12802;SDS011;6465;42.700;23.278;2023-12-20T05:18:06;59.70;;;35.80;;
12802;SDS011;6465;42.700;23.278;2023-12-20T05:20:33;62.73;;;35.97;;
12802;SDS011;6465;42.700;23.278;2023-12-20T05:23:00;71.40;;;36.37;;
12802;SDS011;6465;42.700;23.278;2023-12-20T05:25:27;80.57;;;34.97;;
12802;SDS011;6465;42.700;23.278;2023-12-20T05:27:54;113.13;;;37.80;;
12802;SDS011;6465;42.700;23.278;2023-12-20T05:30:21;85.07;;;35.37;;
12802;SDS011;6465;42.700;23.278;2023-12-20T05:32:50;71.57;;;36.23;;
12802;SDS011;6465;42.700;23.278;2023-12-20T05:35:17;64.00;;;35.70;;
12802;SDS011;6465;42.700;23.278;2023-12-20T05:37:44;66.83;;;36.83;;
12802;SDS011;6465;42.700;23.278;2023-12-20T05:40:11;64.97;;;35.23;;
12802;SDS011;6465;42.700;23.278;2023-12-20T05:42:38;68.47;;;36.67;;
12802;SDS011;6465;42.700;23.278;2023-12-20T05:45:05;69.80;;;38.50;;
12802;SDS011;6465;42.700;23.278;2023-12-20T05:47:33;91.73;;;39.63;;
12802;SDS011;6465;42.700;23.278;2023-12-20T05:50:01;84.60;;;38.27;;
12802;SDS011;6465;42.700;23.278;2023-12-20T05:52:28;80.53;;;39.37;;
12802;SDS011;6465;42.700;23.278;2023-12-20T05:54:55;91.70;;;42.73;;
12802;SDS011;6465;42.700;23.278;2023-12-20T05:57:23;79.10;;;39.90;;
12802;SDS011;6465;42.700;23.278;2023-12-20T05:59:50;96.87;;;42.17;;
12802;SDS011;6465;42.700;23.278;2023-12-20T06:02:17;90.80;;;44.77;;
12802;SDS011;6465;42.700;23.278;2023-12-20T06:04:44;90.47;;;44.93;;
12802;SDS011;6465;42.700;23.278;2023-12-20T06:07:12;103.47;;;51.33;;
12802;SDS011;6465;42.700;23.278;2023-12-20T06:09:40;91.17;;;47.83;;
12802;SDS011;6465;42.700;23.278;2023-12-20T06:12:07;91.37;;;44.13;;
12802;SDS011;6465;42.700;23.278;2023-12-20T06:14:35;75.80;;;38.73;;
12802;SDS011;6465;42.700;23.278;2023-12-20T06:17:02;71.57;;;39.40;;
12802;SDS011;6465;42.700;23.278;2023-12-20T06:19:29;90.17;;;40.60;;
12802;SDS011;6465;42.700;23.278;2023-12-20T06:21:56;94.83;;;44.23;;
12802;SDS011;6465;42.700;23.278;2023-12-20T06:24:24;93.50;;;42.90;;
12802;SDS011;6465;42.700;23.278;2023-12-20T06:26:53;79.83;;;39.93;;
12802;SDS011;6465;42.700;23.278;2023-12-20T06:29:20;79.33;;;39.70;;
12802;SDS011;6465;42.700;23.278;2023-12-20T06:31:47;69.90;;;36.70;;
12802;SDS011;6465;42.700;23.278;2023-12-20T06:34:14;86.73;;;39.03;;
12802;SDS011;6465;42.700;23.278;2023-12-20T06:36:41;103.10;;;41.60;;
12802;SDS011;6465;42.700;23.278;2023-12-20T06:39:08;109.33;;;40.00;;
12802;SDS011;6465;42.700;23.278;2023-12-20T06:41:39;115.07;;;45.00;;
12802;SDS011;6465;42.700;23.278;2023-12-20T06:44:06;137.53;;;42.77;;
12802;SDS011;6465;42.700;23.278;2023-12-20T06:46:33;114.17;;;43.70;;
12802;SDS011;6465;42.700;23.278;2023-12-20T06:49:00;98.20;;;47.93;;
12802;SDS011;6465;42.700;23.278;2023-12-20T06:51:27;104.40;;;48.27;;
12802;SDS011;6465;42.700;23.278;2023-12-20T06:53:55;85.97;;;45.83;;
12802;SDS011;6465;42.700;23.278;2023-12-20T06:56:23;251.80;;;134.77;;
12802;SDS011;6465;42.700;23.278;2023-12-20T06:58:51;177.47;;;74.90;;
12802;SDS011;6465;42.700;23.278;2023-12-20T07:01:18;154.50;;;65.87;;
12802;SDS011;6465;42.700;23.278;2023-12-20T07:03:45;139.53;;;62.60;;
12802;SDS011;6465;42.700;23.278;2023-12-20T07:06:12;139.37;;;62.47;;
12802;SDS011;6465;42.700;23.278;2023-12-20T07:08:41;143.60;;;66.07;;
12802;SDS011;6465;42.700;23.278;2023-12-20T07:11:08;170.27;;;74.63;;
12802;SDS011;6465;42.700;23.278;2023-12-20T07:13:35;171.13;;;73.03;;
12802;SDS011;6465;42.700;23.278;2023-12-20T07:16:04;142.00;;;65.77;;
12802;SDS011;6465;42.700;23.278;2023-12-20T07:18:31;138.40;;;67.27;;
12802;SDS011;6465;42.700;23.278;2023-12-20T07:20:58;160.17;;;72.40;;
12802;SDS011;6465;42.700;23.278;2023-12-20T07:23:24;158.23;;;74.23;;
12802;SDS011;6465;42.700;23.278;2023-12-20T07:25:52;149.97;;;68.87;;
12802;SDS011;6465;42.700;23.278;2023-12-20T07:28:18;139.33;;;67.70;;
12802;SDS011;6465;42.700;23.278;2023-12-20T07:30:45;125.90;;;62.57;;
12802;SDS011;6465;42.700;23.278;2023-12-20T07:33:14;129.13;;;64.20;;
12802;SDS011;6465;42.700;23.278;2023-12-20T07:35:41;94.20;;;48.33;;
12802;SDS011;6465;42.700;23.278;2023-12-20T07:38:10;92.00;;;46.77;;
12802;SDS011;6465;42.700;23.278;2023-12-20T07:40:38;80.20;;;41.03;;
12802;SDS011;6465;42.700;23.278;2023-12-20T07:43:05;75.13;;;42.30;;
12802;SDS011;6465;42.700;23.278;2023-12-20T07:45:32;67.23;;;36.23;;
12802;SDS011;6465;42.700;23.278;2023-12-20T07:47:59;59.40;;;35.17;;
12802;SDS011;6465;42.700;23.278;2023-12-20T07:50:27;52.57;;;32.70;;
12802;SDS011;6465;42.700;23.278;2023-12-20T07:52:54;61.93;;;34.07;;
12802;SDS011;6465;42.700;23.278;2023-12-20T07:55:21;56.97;;;33.37;;
12802;SDS011;6465;42.700;23.278;2023-12-20T07:57:48;67.40;;;36.37;;
12802;SDS011;6465;42.700;23.278;2023-12-20T08:00:15;65.37;;;35.10;;
12802;SDS011;6465;42.700;23.278;2023-12-20T08:02:43;65.67;;;36.47;;
12802;SDS011;6465;42.700;23.278;2023-12-20T08:05:09;62.87;;;35.23;;
12802;SDS011;6465;42.700;23.278;2023-12-20T08:07:38;62.47;;;37.77;;
12802;SDS011;6465;42.700;23.278;2023-12-20T08:10:05;70.30;;;37.97;;
12802;SDS011;6465;42.700;23.278;2023-12-20T08:12:33;65.87;;;36.80;;
12802;SDS011;6465;42.700;23.278;2023-12-20T08:15:00;55.33;;;36.10;;
12802;SDS011;6465;42.700;23.278;2023-12-20T08:17:29;68.87;;;36.23;;
12802;SDS011;6465;42.700;23.278;2023-12-20T08:19:56;67.87;;;36.40;;
12802;SDS011;6465;42.700;23.278;2023-12-20T08:22:23;62.43;;;36.60;;
12802;SDS011;6465;42.700;23.278;2023-12-20T08:24:51;66.43;;;37.73;;
12802;SDS011;6465;42.700;23.278;2023-12-20T08:27:18;64.47;;;37.53;;
12802;SDS011;6465;42.700;23.278;2023-12-20T08:29:45;73.30;;;41.17;;
12802;SDS011;6465;42.700;23.278;2023-12-20T08:32:12;71.27;;;40.37;;
12802;SDS011;6465;42.700;23.278;2023-12-20T08:34:39;74.40;;;41.83;;
12802;SDS011;6465;42.700;23.278;2023-12-20T08:37:06;73.10;;;40.23;;
12802;SDS011;6465;42.700;23.278;2023-12-20T08:39:33;73.63;;;41.40;;
12802;SDS011;6465;42.700;23.278;2023-12-20T08:42:02;72.00;;;40.93;;
12802;SDS011;6465;42.700;23.278;2023-12-20T08:44:29;74.30;;;40.83;;
12802;SDS011;6465;42.700;23.278;2023-12-20T08:46:56;82.57;;;42.17;;
12802;SDS011;6465;42.700;23.278;2023-12-20T08:49:23;85.47;;;44.10;;
12802;SDS011;6465;42.700;23.278;2023-12-20T08:51:50;77.40;;;43.87;;
12802;SDS011;6465;42.700;23.278;2023-12-20T08:54:17;76.77;;;42.23;;
12802;SDS011;6465;42.700;23.278;2023-12-20T08:56:44;79.43;;;44.80;;
12802;SDS011;6465;42.700;23.278;2023-12-20T08:59:13;81.60;;;43.87;;
12802;SDS011;6465;42.700;23.278;2023-12-20T09:01:40;87.70;;;46.40;;
12802;SDS011;6465;42.700;23.278;2023-12-20T09:04:07;81.27;;;47.57;;
12802;SDS011;6465;42.700;23.278;2023-12-20T09:06:35;94.53;;;49.10;;
12802;SDS011;6465;42.700;23.278;2023-12-20T09:09:02;93.00;;;49.80;;
12802;SDS011;6465;42.700;23.278;2023-12-20T09:11:28;103.20;;;50.00;;
12802;SDS011;6465;42.700;23.278;2023-12-20T09:13:55;88.53;;;48.80;;
12802;SDS011;6465;42.700;23.278;2023-12-20T09:16:24;96.37;;;52.83;;
12802;SDS011;6465;42.700;23.278;2023-12-20T09:18:51;92.43;;;52.37;;
12802;SDS011;6465;42.700;23.278;2023-12-20T09:21:18;87.53;;;50.87;;
12802;SDS011;6465;42.700;23.278;2023-12-20T09:23:45;111.17;;;52.83;;
12802;SDS011;6465;42.700;23.278;2023-12-20T09:26:12;97.43;;;52.73;;
12802;SDS011;6465;42.700;23.278;2023-12-20T09:28:39;99.53;;;55.27;;
12802;SDS011;6465;42.700;23.278;2023-12-20T09:31:06;109.53;;;56.47;;
12802;SDS011;6465;42.700;23.278;2023-12-20T09:33:34;103.47;;;57.30;;
12802;SDS011;6465;42.700;23.278;2023-12-20T09:36:02;107.40;;;57.73;;
12802;SDS011;6465;42.700;23.278;2023-12-20T09:38:29;105.43;;;58.00;;
12802;SDS011;6465;42.700;23.278;2023-12-20T09:40:56;113.83;;;61.63;;
12802;SDS011;6465;42.700;23.278;2023-12-20T09:43:23;118.27;;;61.70;;
12802;SDS011;6465;42.700;23.278;2023-12-20T09:45:53;110.77;;;61.93;;
12802;SDS011;6465;42.700;23.278;2023-12-20T09:48:20;114.60;;;62.47;;
12802;SDS011;6465;42.700;23.278;2023-12-20T09:50:49;115.30;;;63.00;;
12802;SDS011;6465;42.700;23.278;2023-12-20T09:53:16;117.57;;;59.93;;
12802;SDS011;6465;42.700;23.278;2023-12-20T09:55:46;135.17;;;66.97;;
12802;SDS011;6465;42.700;23.278;2023-12-20T09:58:13;128.83;;;65.33;;
12802;SDS011;6465;42.700;23.278;2023-12-20T10:00:40;127.50;;;66.20;;
12802;SDS011;6465;42.700;23.278;2023-12-20T10:03:07;140.00;;;67.57;;
12802;SDS011;6465;42.700;23.278;2023-12-20T10:05:35;132.77;;;71.67;;
12802;SDS011;6465;42.700;23.278;2023-12-20T10:08:04;137.73;;;72.57;;
12802;SDS011;6465;42.700;23.278;2023-12-20T10:10:31;139.40;;;73.97;;
12802;SDS011;6465;42.700;23.278;2023-12-20T10:13:02;141.77;;;76.07;;
12802;SDS011;6465;42.700;23.278;2023-12-20T10:15:31;133.93;;;74.00;;
12802;SDS011;6465;42.700;23.278;2023-12-20T10:17:59;134.27;;;73.03;;
12802;SDS011;6465;42.700;23.278;2023-12-20T10:20:28;143.90;;;75.47;;
12802;SDS011;6465;42.700;23.278;2023-12-20T10:22:56;146.67;;;73.20;;
12802;SDS011;6465;42.700;23.278;2023-12-20T10:25:25;134.87;;;73.87;;
12802;SDS011;6465;42.700;23.278;2023-12-20T10:30:38;121.63;;;68.23;;
12802;SDS011;6465;42.700;23.278;2023-12-20T10:33:06;127.23;;;73.50;;
12802;SDS011;6465;42.700;23.278;2023-12-20T10:35:34;136.37;;;81.30;;
12802;SDS011;6465;42.700;23.278;2023-12-20T10:38:02;143.47;;;91.47;;
12802;SDS011;6465;42.700;23.278;2023-12-20T10:40:32;153.83;;;97.67;;
12802;SDS011;6465;42.700;23.278;2023-12-20T10:43:01;151.20;;;95.47;;
12802;SDS011;6465;42.700;23.278;2023-12-20T10:45:29;147.13;;;92.37;;
12802;SDS011;6465;42.700;23.278;2023-12-20T10:47:56;145.77;;;89.40;;
12802;SDS011;6465;42.700;23.278;2023-12-20T10:50:26;141.27;;;92.43;;
12802;SDS011;6465;42.700;23.278;2023-12-20T10:52:54;144.07;;;89.47;;
12802;SDS011;6465;42.700;23.278;2023-12-20T10:55:21;130.43;;;83.20;;
12802;SDS011;6465;42.700;23.278;2023-12-20T10:57:50;146.60;;;91.70;;
12802;SDS011;6465;42.700;23.278;2023-12-20T11:00:18;147.73;;;95.10;;
12802;SDS011;6465;42.700;23.278;2023-12-20T11:02:45;159.33;;;95.40;;
12802;SDS011;6465;42.700;23.278;2023-12-20T11:05:22;159.80;;;96.10;;
12802;SDS011;6465;42.700;23.278;2023-12-20T11:07:58;141.50;;;84.17;;
12802;SDS011;6465;42.700;23.278;2023-12-20T11:10:31;145.60;;;83.50;;
12802;SDS011;6465;42.700;23.278;2023-12-20T11:13:06;148.60;;;86.03;;
12802;SDS011;6465;42.700;23.278;2023-12-20T11:15:36;156.77;;;88.60;;
12802;SDS011;6465;42.700;23.278;2023-12-20T11:18:04;153.33;;;85.77;;
12802;SDS011;6465;42.700;23.278;2023-12-20T11:20:35;164.03;;;88.73;;
12802;SDS011;6465;42.700;23.278;2023-12-20T11:23:03;160.83;;;88.17;;
12802;SDS011;6465;42.700;23.278;2023-12-20T11:25:34;166.57;;;91.67;;
12802;SDS011;6465;42.700;23.278;2023-12-20T11:28:14;167.17;;;93.10;;
12802;SDS011;6465;42.700;23.278;2023-12-20T11:30:46;158.17;;;90.50;;
12802;SDS011;6465;42.700;23.278;2023-12-20T11:33:14;166.00;;;88.20;;
12802;SDS011;6465;42.700;23.278;2023-12-20T11:35:41;154.37;;;87.60;;
12802;SDS011;6465;42.700;23.278;2023-12-20T11:38:09;157.20;;;90.03;;
12802;SDS011;6465;42.700;23.278;2023-12-20T11:40:36;174.73;;;92.43;;
12802;SDS011;6465;42.700;23.278;2023-12-20T11:43:03;164.10;;;91.63;;
12802;SDS011;6465;42.700;23.278;2023-12-20T11:45:32;175.13;;;97.53;;
12802;SDS011;6465;42.700;23.278;2023-12-20T11:48:00;170.80;;;99.57;;
12802;SDS011;6465;42.700;23.278;2023-12-20T11:50:28;179.13;;;99.30;;
12802;SDS011;6465;42.700;23.278;2023-12-20T11:52:56;178.93;;;100.70;;
12802;SDS011;6465;42.700;23.278;2023-12-20T11:55:23;175.53;;;104.30;;
12802;SDS011;6465;42.700;23.278;2023-12-20T11:57:50;176.70;;;104.27;;
12802;SDS011;6465;42.700;23.278;2023-12-20T12:00:18;174.33;;;100.47;;
12802;SDS011;6465;42.700;23.278;2023-12-20T12:02:56;177.63;;;102.03;;
12802;SDS011;6465;42.700;23.278;2023-12-20T12:05:24;176.77;;;98.10;;
12802;SDS011;6465;42.700;23.278;2023-12-20T12:07:51;180.63;;;100.23;;
12802;SDS011;6465;42.700;23.278;2023-12-20T12:10:18;180.53;;;101.03;;
12802;SDS011;6465;42.700;23.278;2023-12-20T12:12:45;164.67;;;98.90;;
12802;SDS011;6465;42.700;23.278;2023-12-20T12:15:13;164.33;;;96.77;;
12802;SDS011;6465;42.700;23.278;2023-12-20T12:17:41;176.67;;;101.30;;
12802;SDS011;6465;42.700;23.278;2023-12-20T12:20:09;177.70;;;101.87;;
12802;SDS011;6465;42.700;23.278;2023-12-20T12:22:37;173.13;;;101.07;;
12802;SDS011;6465;42.700;23.278;2023-12-20T12:25:10;167.77;;;96.67;;
12802;SDS011;6465;42.700;23.278;2023-12-20T12:27:41;165.23;;;93.63;;
12802;SDS011;6465;42.700;23.278;2023-12-20T12:30:09;164.27;;;96.50;;
12802;SDS011;6465;42.700;23.278;2023-12-20T12:32:38;151.90;;;86.03;;
12802;SDS011;6465;42.700;23.278;2023-12-20T12:35:05;141.13;;;81.97;;
12802;SDS011;6465;42.700;23.278;2023-12-20T12:37:37;147.80;;;83.67;;
12802;SDS011;6465;42.700;23.278;2023-12-20T12:40:05;140.43;;;73.93;;
12802;SDS011;6465;42.700;23.278;2023-12-20T12:42:32;142.10;;;75.17;;
12802;SDS011;6465;42.700;23.278;2023-12-20T12:44:59;129.20;;;75.50;;
12802;SDS011;6465;42.700;23.278;2023-12-20T12:47:26;125.67;;;73.70;;
12802;SDS011;6465;42.700;23.278;2023-12-20T12:49:53;133.57;;;72.20;;
12802;SDS011;6465;42.700;23.278;2023-12-20T12:52:21;134.33;;;74.60;;
12802;SDS011;6465;42.700;23.278;2023-12-20T12:54:49;142.63;;;76.73;;
12802;SDS011;6465;42.700;23.278;2023-12-20T12:57:16;138.13;;;75.10;;
12802;SDS011;6465;42.700;23.278;2023-12-20T12:59:43;127.23;;;76.13;;
12802;SDS011;6465;42.700;23.278;2023-12-20T13:02:11;132.10;;;72.43;;
12802;SDS011;6465;42.700;23.278;2023-12-20T13:04:38;128.87;;;73.73;;
12802;SDS011;6465;42.700;23.278;2023-12-20T13:07:05;140.53;;;76.03;;
12802;SDS011;6465;42.700;23.278;2023-12-20T13:09:32;134.63;;;73.57;;
12802;SDS011;6465;42.700;23.278;2023-12-20T13:12:01;143.60;;;79.33;;
12802;SDS011;6465;42.700;23.278;2023-12-20T13:14:29;139.47;;;73.23;;
12802;SDS011;6465;42.700;23.278;2023-12-20T13:16:58;132.83;;;73.90;;
12802;SDS011;6465;42.700;23.278;2023-12-20T13:19:25;136.27;;;75.60;;
12802;SDS011;6465;42.700;23.278;2023-12-20T13:21:52;146.70;;;75.20;;
12802;SDS011;6465;42.700;23.278;2023-12-20T13:24:20;128.00;;;71.03;;
12802;SDS011;6465;42.700;23.278;2023-12-20T13:26:47;127.40;;;70.67;;
12802;SDS011;6465;42.700;23.278;2023-12-20T13:29:15;134.67;;;70.53;;
12802;SDS011;6465;42.700;23.278;2023-12-20T13:31:42;128.50;;;69.17;;
12802;SDS011;6465;42.700;23.278;2023-12-20T13:34:09;135.77;;;68.37;;
12802;SDS011;6465;42.700;23.278;2023-12-20T13:36:37;129.80;;;73.50;;
12802;SDS011;6465;42.700;23.278;2023-12-20T13:39:04;135.10;;;68.97;;
12802;SDS011;6465;42.700;23.278;2023-12-20T13:41:32;138.37;;;70.77;;
12802;SDS011;6465;42.700;23.278;2023-12-20T13:43:59;133.77;;;70.50;;
12802;SDS011;6465;42.700;23.278;2023-12-20T13:46:29;136.03;;;70.53;;
12802;SDS011;6465;42.700;23.278;2023-12-20T13:48:57;147.83;;;73.47;;
12802;SDS011;6465;42.700;23.278;2023-12-20T13:51:23;135.20;;;69.40;;
12802;SDS011;6465;42.700;23.278;2023-12-20T13:53:50;137.60;;;73.37;;
12802;SDS011;6465;42.700;23.278;2023-12-20T13:56:17;146.17;;;72.57;;
12802;SDS011;6465;42.700;23.278;2023-12-20T13:58:45;132.93;;;68.13;;
12802;SDS011;6465;42.700;23.278;2023-12-20T14:01:12;138.50;;;73.83;;
12802;SDS011;6465;42.700;23.278;2023-12-20T14:03:41;147.57;;;70.97;;
12802;SDS011;6465;42.700;23.278;2023-12-20T14:06:08;147.93;;;71.83;;
12802;SDS011;6465;42.700;23.278;2023-12-20T14:08:35;141.90;;;72.83;;
12802;SDS011;6465;42.700;23.278;2023-12-20T14:11:02;140.73;;;69.30;;
12802;SDS011;6465;42.700;23.278;2023-12-20T14:13:29;152.03;;;73.53;;
12802;SDS011;6465;42.700;23.278;2023-12-20T14:15:56;153.03;;;77.00;;
12802;SDS011;6465;42.700;23.278;2023-12-20T14:18:25;139.40;;;72.07;;
12802;SDS011;6465;42.700;23.278;2023-12-20T14:20:54;151.70;;;78.13;;